Time;durP1;ratioP1;P1;durP2;ratioP2;P2;SDS_P1;SDS_P2;PMS_P1;PMS_P2;Temp;Humidity;BMP_temperature;BMP_pressure;BME280_temperature;BME280_humidity;BME280_pressure;Samples;Min_cycle;Max_cycle;Signal;HPM_P1;HPM_P2
2022/03/16 00:00:49;;;;;;;0.00;0.00;;;9.90;99.90;;;;;;5036817;28;20026;-75
2022/03/16 00:03:14;;;;;;;0.00;0.00;;;10.00;99.90;;;;;;5017526;28;20040;-75
2022/03/16 00:05:40;;;;;;;0.00;0.00;;;10.10;99.90;;;;;;5026895;28;20060;-75
2022/03/16 00:08:06;;;;;;;0.00;0.00;;;10.00;99.90;;;;;;5029383;28;20042;-75
2022/03/16 00:10:32;;;;;;;0.00;0.00;;;9.90;99.90;;;;;;5013448;28;20069;-74
2022/03/16 00:12:57;;;;;;;0.00;0.00;;;9.80;99.90;;;;;;5013343;28;20011;-73
2022/03/16 00:15:25;;;;;;;0.00;0.00;;;9.80;99.90;;;;;;5017848;28;20033;-74
2022/03/16 00:17:50;;;;;;;0.00;0.00;;;9.80;99.90;;;;;;5008656;28;20018;-74
2022/03/16 00:20:16;;;;;;;0.00;0.00;;;9.80;99.90;;;;;;5032875;28;20048;-76
2022/03/16 00:22:42;;;;;;;0.00;0.00;;;9.70;99.90;;;;;;5030540;28;20049;-75
2022/03/16 00:25:08;;;;;;;0.00;0.00;;;9.60;99.90;;;;;;5034548;28;20022;-76
2022/03/16 00:27:34;;;;;;;0.00;0.00;;;9.50;99.90;;;;;;5025457;28;20037;-74
2022/03/16 00:29:59;;;;;;;0.00;0.00;;;9.50;99.90;;;;;;5021784;28;20022;-74
2022/03/16 00:32:25;;;;;;;0.00;0.00;;;9.50;99.90;;;;;;5017684;28;20028;-74
2022/03/16 00:34:51;;;;;;;0.00;0.00;;;9.50;99.90;;;;;;5017092;28;20021;-75
2022/03/16 00:37:16;;;;;;;0.00;0.00;;;9.40;99.90;;;;;;5029925;28;20025;-75
2022/03/16 00:39:42;;;;;;;0.00;0.00;;;9.40;99.90;;;;;;5003801;28;20026;-74
2022/03/16 00:42:08;;;;;;;0.00;0.00;;;9.40;99.90;;;;;;5016211;28;20038;-74
2022/03/16 00:44:35;;;;;;;0.00;0.00;;;9.40;99.90;;;;;;5032237;28;20042;-73
2022/03/16 00:47:04;;;;;;;0.00;0.00;;;9.30;99.90;;;;;;5026683;28;20033;-74
2022/03/16 00:49:30;;;;;;;0.00;0.00;;;9.30;99.90;;;;;;5026189;28;20036;-73
2022/03/16 00:51:57;;;;;;;;;;;9.30;99.90;;;;;;5034235;28;20034;-75
2022/03/16 00:54:23;;;;;;;0.00;0.00;;;9.20;99.90;;;;;;5036188;28;19945;-75
2022/03/16 00:56:51;;;;;;;0.00;0.00;;;9.30;99.90;;;;;;5024647;28;20022;-76
2022/03/16 00:59:17;;;;;;;0.00;0.00;;;9.40;99.90;;;;;;5031052;28;20029;-75
2022/03/16 01:01:43;;;;;;;0.00;0.00;;;9.40;99.90;;;;;;5031885;28;20085;-76
2022/03/16 01:04:08;;;;;;;0.00;0.00;;;9.40;99.90;;;;;;5035082;28;20524;-76
2022/03/16 01:06:34;;;;;;;0.00;0.00;;;9.30;99.90;;;;;;5035477;28;20114;-75
2022/03/16 01:09:01;;;;;;;0.00;0.00;;;9.30;99.90;;;;;;5034619;28;20026;-74
2022/03/16 01:11:27;;;;;;;0.00;0.00;;;9.30;99.90;;;;;;5018363;28;20065;-75
2022/03/16 01:13:53;;;;;;;0.00;0.00;;;9.20;99.90;;;;;;5017117;28;20034;-74
2022/03/16 01:16:19;;;;;;;0.00;0.00;;;9.20;99.90;;;;;;5013619;28;20049;-75
2022/03/16 01:18:44;;;;;;;0.00;0.00;;;9.10;99.90;;;;;;5025410;28;20017;-76
2022/03/16 01:21:10;;;;;;;0.00;0.00;;;9.10;99.90;;;;;;5031432;28;20018;-75
2022/03/16 01:23:37;;;;;;;0.00;0.00;;;9.10;99.90;;;;;;5010472;28;20021;-74
2022/03/16 01:26:04;;;;;;;0.00;0.00;;;9.10;99.90;;;;;;5034978;28;20041;-75
2022/03/16 01:28:30;;;;;;;0.00;0.00;;;9.10;99.90;;;;;;5015303;28;20081;-74
2022/03/16 01:30:57;;;;;;;0.00;0.00;;;9.10;99.90;;;;;;5003657;28;20034;-74
2022/03/16 01:33:23;;;;;;;0.00;0.00;;;9.10;99.90;;;;;;5027310;28;20125;-75
2022/03/16 01:35:49;;;;;;;0.00;0.00;;;9.10;99.90;;;;;;5026562;28;20030;-75
2022/03/16 01:38:15;;;;;;;0.00;0.00;;;9.00;99.90;;;;;;5011093;28;20029;-75
2022/03/16 01:40:40;;;;;;;0.00;0.00;;;9.00;99.90;;;;;;5033544;28;20090;-75
2022/03/16 01:43:06;;;;;;;0.00;0.00;;;9.00;99.90;;;;;;5032883;28;20037;-76
2022/03/16 01:45:32;;;;;;;0.00;0.00;;;9.00;99.90;;;;;;5000066;28;20034;-74
2022/03/16 01:47:58;;;;;;;0.00;0.00;;;9.00;99.90;;;;;;5008160;28;20030;-76
2022/03/16 01:50:23;;;;;;;0.00;0.00;;;9.00;99.90;;;;;;5013390;28;20065;-76
2022/03/16 01:52:50;;;;;;;0.00;0.00;;;8.90;99.90;;;;;;5002279;28;20037;-75
2022/03/16 01:55:16;;;;;;;0.00;0.00;;;9.00;99.90;;;;;;5015872;28;20036;-75
2022/03/16 01:57:45;;;;;;;;;;;9.00;99.90;;;;;;5035470;28;20018;-75
2022/03/16 02:00:11;;;;;;;0.00;0.00;;;9.00;99.90;;;;;;5013782;28;19901;-74
2022/03/16 02:02:37;;;;;;;0.00;0.00;;;9.00;99.90;;;;;;5024461;28;20034;-75
2022/03/16 02:05:03;;;;;;;0.00;0.00;;;8.90;99.90;;;;;;5019784;28;20014;-74
2022/03/16 02:07:29;;;;;;;0.00;0.00;;;8.90;99.90;;;;;;5035341;28;20090;-75
2022/03/16 02:09:57;;;;;;;0.00;0.00;;;8.90;99.90;;;;;;5021112;28;20022;-74
2022/03/16 02:12:23;;;;;;;0.00;0.00;;;8.90;99.90;;;;;;5031904;28;20057;-76
2022/03/16 02:14:49;;;;;;;0.00;0.00;;;8.90;99.90;;;;;;5037320;28;20030;-75
2022/03/16 02:17:14;;;;;;;0.00;0.00;;;8.80;99.90;;;;;;5022234;28;20050;-76
2022/03/16 02:19:41;;;;;;;0.00;0.00;;;8.80;99.90;;;;;;5033460;28;20028;-74
2022/03/16 02:22:10;;;;;;;0.00;0.00;;;8.80;99.90;;;;;;5030778;28;20057;-74
2022/03/16 02:24:36;;;;;;;0.00;0.00;;;8.90;99.90;;;;;;5022277;28;20040;-77
2022/03/16 02:27:01;;;;;;;0.00;0.00;;;8.80;99.90;;;;;;5035548;28;20027;-74
2022/03/16 02:29:27;;;;;;;0.00;0.00;;;8.80;99.90;;;;;;5030584;28;20022;-74
2022/03/16 02:31:53;;;;;;;0.00;0.00;;;8.80;99.90;;;;;;5038363;28;20018;-75
2022/03/16 02:34:19;;;;;;;;;;;8.80;99.90;;;;;;5011265;28;20022;-74
2022/03/16 02:36:45;;;;;;;0.00;0.00;;;8.80;99.90;;;;;;5037828;28;19897;-75
2022/03/16 02:39:10;;;;;;;0.00;0.00;;;8.80;99.90;;;;;;5038290;28;20062;-77
2022/03/16 02:41:36;;;;;;;0.00;0.00;;;8.90;99.90;;;;;;5035682;28;20065;-74
2022/03/16 02:44:02;;;;;;;0.00;0.00;;;8.80;99.90;;;;;;5035913;28;20014;-74
2022/03/16 02:46:28;;;;;;;0.00;0.00;;;8.80;99.90;;;;;;5039603;28;20060;-74
2022/03/16 02:48:54;;;;;;;0.00;0.00;;;8.80;99.90;;;;;;5032841;28;20035;-75
2022/03/16 02:51:19;;;;;;;0.00;0.00;;;8.90;99.90;;;;;;5036175;28;20462;-74
2022/03/16 02:53:46;;;;;;;0.00;0.00;;;8.80;99.90;;;;;;5024577;28;20026;-75
2022/03/16 02:56:12;;;;;;;0.00;0.00;;;8.80;99.90;;;;;;5018667;28;20030;-75
2022/03/16 02:58:37;;;;;;;0.00;0.00;;;8.80;99.90;;;;;;5032581;28;20061;-74
2022/03/16 03:01:04;;;;;;;0.00;0.00;;;8.70;99.90;;;;;;5034381;28;20037;-74
2022/03/16 03:03:29;;;;;;;0.00;0.00;;;8.70;99.90;;;;;;5034381;28;20014;-74
2022/03/16 03:05:55;;;;;;;0.00;0.00;;;8.60;99.90;;;;;;5039422;28;20076;-74
2022/03/16 03:08:22;;;;;;;0.00;0.00;;;8.70;99.90;;;;;;5038382;28;20018;-74
2022/03/16 03:10:48;;;;;;;0.00;0.00;;;8.60;99.90;;;;;;5022625;28;20020;-76
2022/03/16 03:13:14;;;;;;;0.00;0.00;;;8.60;99.90;;;;;;5034793;28;20014;-76
2022/03/16 03:15:42;;;;;;;0.00;0.00;;;8.60;99.90;;;;;;5037309;28;20030;-75
2022/03/16 03:18:08;;;;;;;0.00;0.00;;;8.60;99.90;;;;;;5020145;28;20082;-75
2022/03/16 03:20:33;;;;;;;0.00;0.00;;;8.60;99.90;;;;;;5037695;28;20578;-74
2022/03/16 03:22:59;;;;;;;0.00;0.00;;;8.60;99.90;;;;;;5033802;28;20058;-74
2022/03/16 03:25:25;;;;;;;0.00;0.00;;;8.60;99.90;;;;;;5035879;28;20072;-74
2022/03/16 03:27:50;;;;;;;0.00;0.00;;;8.60;99.90;;;;;;5017739;28;20022;-75
2022/03/16 03:30:16;;;;;;;0.00;0.00;;;8.60;99.90;;;;;;5032924;28;20018;-75
2022/03/16 03:32:42;;;;;;;0.00;0.00;;;8.60;99.90;;;;;;5036265;28;20034;-75
2022/03/16 03:35:08;;;;;;;0.00;0.00;;;8.50;99.90;;;;;;5012506;28;20054;-75
2022/03/16 03:37:36;;;;;;;0.00;0.00;;;8.40;99.90;;;;;;5008576;28;20121;-73
2022/03/16 03:40:05;;;;;;;0.00;0.00;;;8.40;99.90;;;;;;5012190;28;20029;-75
2022/03/16 03:42:32;;;;;;;0.00;0.00;;;8.40;99.90;;;;;;5024508;28;20068;-75
2022/03/16 03:44:58;;;;;;;0.00;0.00;;;8.40;99.90;;;;;;5027946;28;20016;-78
2022/03/16 03:47:23;;;;;;;0.00;0.00;;;8.40;99.90;;;;;;5016075;28;20030;-76
2022/03/16 03:49:50;;;;;;;0.00;0.00;;;8.40;99.90;;;;;;5013820;28;20002;-77
2022/03/16 03:52:16;;;;;;;0.00;0.00;;;8.30;99.90;;;;;;5012389;28;20031;-78
2022/03/16 03:54:41;;;;;;;0.00;0.00;;;8.40;99.90;;;;;;5020095;28;20021;-74
2022/03/16 03:57:07;;;;;;;0.00;0.00;;;8.30;99.90;;;;;;5014576;28;20080;-76
2022/03/16 03:59:33;;;;;;;0.00;0.00;;;8.40;99.90;;;;;;5018293;28;20054;-75
2022/03/16 04:01:59;;;;;;;0.00;0.00;;;8.30;99.90;;;;;;5000858;28;20044;-75
2022/03/16 04:04:25;;;;;;;0.00;0.00;;;8.30;99.90;;;;;;5022489;28;20041;-75
2022/03/16 04:06:50;;;;;;;0.00;0.00;;;8.30;99.90;;;;;;5024156;28;20054;-75
2022/03/16 04:09:16;;;;;;;0.00;0.00;;;8.30;99.90;;;;;;5007660;28;20057;-76
2022/03/16 04:11:42;;;;;;;0.00;0.00;;;8.30;99.90;;;;;;5018448;28;20031;-74
2022/03/16 04:14:08;;;;;;;0.00;0.00;;;8.40;99.90;;;;;;5019339;28;20058;-76
2022/03/16 04:16:33;;;;;;;0.00;0.00;;;8.40;99.90;;;;;;5023029;28;20030;-76
2022/03/16 04:18:59;;;;;;;0.00;0.00;;;8.50;99.90;;;;;;5024383;28;20029;-76
2022/03/16 04:21:25;;;;;;;0.00;0.00;;;8.50;99.90;;;;;;5027626;28;20038;-76
2022/03/16 04:23:51;;;;;;;;;;;8.50;99.90;;;;;;5016922;28;19998;-75
2022/03/16 04:26:17;;;;;;;0.00;0.00;;;8.50;99.90;;;;;;5015944;28;19909;-76
2022/03/16 04:28:46;;;;;;;0.00;0.00;;;8.50;99.90;;;;;;5025902;28;20014;-75
2022/03/16 04:31:12;;;;;;;0.00;0.00;;;8.50;99.90;;;;;;5028485;28;20061;-76
2022/03/16 04:33:38;;;;;;;;;;;8.60;99.90;;;;;;5002646;28;20068;-75
2022/03/16 04:36:05;;;;;;;0.00;0.00;;;8.80;99.90;;;;;;5025068;28;19905;-74
2022/03/16 04:38:32;;;;;;;0.00;0.00;;;8.70;99.90;;;;;;5023758;28;20022;-76
2022/03/16 04:41:01;;;;;;;0.00;0.00;;;8.70;99.90;;;;;;5006528;28;20038;-77
2022/03/16 04:43:26;;;;;;;0.00;0.00;;;8.60;99.90;;;;;;5022659;28;20038;-76
2022/03/16 04:45:52;;;;;;;0.00;0.00;;;8.60;99.90;;;;;;5006950;28;20447;-75
2022/03/16 04:48:19;;;;;;;0.00;0.00;;;8.70;99.90;;;;;;5017367;28;20022;-76
2022/03/16 04:50:44;;;;;;;0.00;0.00;;;8.80;99.90;;;;;;5028189;28;20042;-75
2022/03/16 04:53:10;;;;;;;0.00;0.00;;;8.90;99.90;;;;;;5011728;28;20014;-76
2022/03/16 04:55:36;;;;;;;0.00;0.00;;;9.10;99.90;;;;;;5009515;28;20026;-76
2022/03/16 04:58:04;;;;;;;0.00;0.00;;;9.10;99.90;;;;;;5033105;28;20045;-76
2022/03/16 05:00:30;;;;;;;0.00;0.00;;;9.10;99.90;;;;;;5024261;28;20074;-76
2022/03/16 05:02:56;;;;;;;0.00;0.00;;;9.10;99.90;;;;;;5035640;28;20038;-74
2022/03/16 05:05:21;;;;;;;0.00;0.00;;;9.30;99.90;;;;;;5036790;28;20022;-77
2022/03/16 05:07:48;;;;;;;0.00;0.00;;;9.30;99.90;;;;;;5036016;28;20033;-75
2022/03/16 05:10:13;;;;;;;;;;;9.30;99.90;;;;;;5037252;28;20038;-74
2022/03/16 05:12:40;;;;;;;0.00;0.00;;;9.30;99.90;;;;;;5034492;28;19921;-78
2022/03/16 05:15:08;;;;;;;0.00;0.00;;;9.20;99.90;;;;;;5027548;28;20041;-74
2022/03/16 05:17:35;;;;;;;0.00;0.00;;;9.10;99.90;;;;;;5035832;28;20022;-75
2022/03/16 05:20:01;;;;;;;0.00;0.00;;;9.10;99.90;;;;;;5018992;28;20028;-75
2022/03/16 05:22:26;;;;;;;0.00;0.00;;;9.20;99.90;;;;;;5034010;28;20034;-76
2022/03/16 05:24:52;;;;;;;0.00;0.00;;;9.20;99.90;;;;;;5036194;28;20038;-76
2022/03/16 05:27:20;;;;;;;0.00;0.00;;;9.20;99.90;;;;;;5034561;28;20030;-75
2022/03/16 05:29:47;;;;;;;0.00;0.00;;;9.10;99.90;;;;;;5015411;28;20064;-75
2022/03/16 05:32:13;;;;;;;0.00;0.00;;;9.10;99.90;;;;;;5035260;28;20076;-76
2022/03/16 05:34:39;;;;;;;;;;;9.30;99.90;;;;;;5034035;28;20014;-75
2022/03/16 05:37:05;;;;;;;0.00;0.00;;;9.20;99.90;;;;;;5008369;28;19905;-75
2022/03/16 05:39:31;;;;;;;0.00;0.00;;;9.20;99.90;;;;;;5012525;28;20030;-74
2022/03/16 05:41:56;;;;;;;0.00;0.00;;;9.40;99.90;;;;;;5029887;28;20038;-76
2022/03/16 05:44:23;;;;;;;0.00;0.00;;;9.30;99.90;;;;;;5026976;28;20025;-75
2022/03/16 05:46:48;;;;;;;0.00;0.00;;;9.20;99.90;;;;;;5032919;28;20045;-75
2022/03/16 05:49:14;;;;;;;0.00;0.00;;;9.30;99.90;;;;;;5032747;28;20030;-75
2022/03/16 05:51:40;;;;;;;;;;;9.30;99.90;;;;;;5012473;28;20040;-75
2022/03/16 05:54:06;;;;;;;0.00;0.00;;;9.30;99.90;;;;;;5016461;28;19909;-76
2022/03/16 05:56:32;;;;;;;0.00;0.00;;;9.40;99.90;;;;;;4984315;28;20029;-76
2022/03/16 05:58:57;;;;;;;0.00;0.00;;;9.50;99.90;;;;;;5024260;28;20026;-75
2022/03/16 06:01:23;;;;;;;0.00;0.00;;;9.50;99.90;;;;;;5022773;28;20445;-75
2022/03/16 06:03:49;;;;;;;0.00;0.00;;;9.60;99.90;;;;;;5014913;28;20034;-74
2022/03/16 06:06:15;;;;;;;0.00;0.00;;;9.60;99.90;;;;;;5010508;28;20049;-75
2022/03/16 06:08:41;;;;;;;;;;;9.60;99.90;;;;;;5019856;28;20169;-75
2022/03/16 06:11:07;;;;;;;0.00;0.00;;;9.60;99.90;;;;;;5021446;28;19917;-75
2022/03/16 06:13:33;;;;;;;0.00;0.00;;;9.60;99.90;;;;;;5017918;28;20030;-75
2022/03/16 06:16:02;;;;;;;0.00;0.00;;;9.60;99.90;;;;;;5000671;28;20030;-77
2022/03/16 06:18:28;;;;;;;0.00;0.00;;;9.60;99.90;;;;;;5005912;28;20084;-76
2022/03/16 06:20:56;;;;;;;0.00;0.00;;;9.60;99.90;;;;;;5001058;28;20131;-77
2022/03/16 06:23:22;;;;;;;0.00;0.00;;;9.60;99.90;;;;;;5022895;28;20049;-76
2022/03/16 06:25:47;;;;;;;0.00;0.00;;;9.60;99.90;;;;;;5023507;28;20026;-75
2022/03/16 06:28:13;;;;;;;0.00;0.00;;;9.60;99.90;;;;;;5022941;28;20519;-75
2022/03/16 06:30:39;;;;;;;0.00;0.00;;;9.50;99.90;;;;;;5026736;28;20041;-74
2022/03/16 06:33:05;;;;;;;0.00;0.00;;;9.50;99.90;;;;;;5027356;28;20168;-75
2022/03/16 06:35:30;;;;;;;0.00;0.00;;;9.50;99.90;;;;;;5005136;28;20498;-75
2022/03/16 06:37:56;;;;;;;0.00;0.00;;;9.50;99.90;;;;;;5019356;28;20543;-79
2022/03/16 06:40:22;;;;;;;0.00;0.00;;;9.40;99.90;;;;;;5028248;28;20041;-75
2022/03/16 06:42:53;;;;;;;0.00;0.00;;;9.50;99.90;;;;;;5028332;28;20474;-77
2022/03/16 06:45:19;;;;;;;0.00;0.00;;;9.50;99.90;;;;;;5025679;28;20117;-75
2022/03/16 06:47:46;;;;;;;0.00;0.00;;;9.50;99.90;;;;;;5006235;28;20113;-77
2022/03/16 06:50:12;;;;;;;0.00;0.00;;;9.50;99.90;;;;;;5027453;28;20054;-75
2022/03/16 06:52:39;;;;;;;0.00;0.00;;;9.50;99.90;;;;;;5006860;28;20057;-76
2022/03/16 06:55:06;;;;;;;0.00;0.00;;;9.60;99.90;;;;;;5010743;28;20480;-75
2022/03/16 06:57:32;;;;;;;0.00;0.00;;;9.60;99.90;;;;;;5012496;28;20026;-76
2022/03/16 06:59:58;;;;;;;0.00;0.00;;;9.70;99.90;;;;;;5011257;28;20033;-76
2022/03/16 07:02:23;;;;;;;0.00;0.00;;;9.70;99.90;;;;;;5008784;28;20062;-75
2022/03/16 07:04:49;;;;;;;0.00;0.00;;;9.70;99.90;;;;;;5028354;28;20022;-76
2022/03/16 07:07:15;;;;;;;0.00;0.00;;;9.60;99.90;;;;;;5030534;28;20050;-76
2022/03/16 07:09:41;;;;;;;0.00;0.00;;;9.60;99.90;;;;;;5024958;28;20065;-76
2022/03/16 07:12:08;;;;;;;0.00;0.00;;;9.70;99.90;;;;;;5004509;28;20035;-76
2022/03/16 07:14:35;;;;;;;0.00;0.00;;;9.90;99.90;;;;;;5033158;28;20022;-76
2022/03/16 07:17:02;;;;;;;0.00;0.00;;;10.00;99.90;;;;;;5031778;28;20032;-75
2022/03/16 07:19:29;;;;;;;0.00;0.00;;;10.00;99.90;;;;;;5015921;28;20022;-77
2022/03/16 07:22:00;;;;;;;0.00;0.00;;;10.00;99.90;;;;;;5013933;28;20045;-76
2022/03/16 07:24:26;;;;;;;0.00;0.00;;;10.00;99.90;;;;;;5026106;28;20069;-75
2022/03/16 07:26:55;;;;;;;0.00;0.00;;;10.00;99.90;;;;;;5020268;28;20021;-75
2022/03/16 07:29:22;;;;;;;0.00;0.00;;;10.00;99.90;;;;;;5025754;28;20561;-75
2022/03/16 07:31:48;;;;;;;0.00;0.00;;;9.90;99.90;;;;;;5022599;28;20038;-74
2022/03/16 07:34:14;;;;;;;0.00;0.00;;;10.00;99.90;;;;;;5030051;28;20030;-74
2022/03/16 07:36:40;;;;;;;0.00;0.00;;;10.00;99.90;;;;;;5015133;28;20047;-76
2022/03/16 07:39:06;;;;;;;0.00;0.00;;;9.90;99.90;;;;;;5032539;28;20015;-75
2022/03/16 07:41:32;;;;;;;0.00;0.00;;;9.90;99.90;;;;;;5032672;28;20030;-75
2022/03/16 07:43:58;;;;;;;0.00;0.00;;;9.90;99.90;;;;;;5018937;28;20038;-75
2022/03/16 07:46:24;;;;;;;0.00;0.00;;;9.90;99.90;;;;;;5038401;28;20041;-75
2022/03/16 07:48:49;;;;;;;0.00;0.00;;;9.90;99.90;;;;;;5034002;28;20021;-75
2022/03/16 07:51:15;;;;;;;0.00;0.00;;;10.10;99.90;;;;;;5035570;28;20034;-74
2022/03/16 07:53:41;;;;;;;0.00;0.00;;;10.20;99.90;;;;;;5026892;28;20019;-75
2022/03/16 07:56:07;;;;;;;0.00;0.00;;;10.00;99.90;;;;;;5019329;28;20078;-75
2022/03/16 07:58:33;;;;;;;0.00;0.00;;;10.00;99.90;;;;;;5027871;28;20033;-75
2022/03/16 08:00:59;;;;;;;;;;;10.00;99.90;;;;;;5013214;28;20064;-74
2022/03/16 08:03:26;;;;;;;0.00;0.00;;;10.20;99.90;;;;;;5003493;28;19902;-75
2022/03/16 08:05:52;;;;;;;0.00;0.00;;;10.20;99.90;;;;;;5008484;28;20085;-75
2022/03/16 08:08:18;;;;;;;0.00;0.00;;;10.20;99.90;;;;;;5034954;28;20022;-76
2022/03/16 08:10:44;;;;;;;0.00;0.00;;;10.10;99.90;;;;;;5004586;28;20035;-76
2022/03/16 08:13:10;;;;;;;0.00;0.00;;;10.10;99.90;;;;;;5016961;28;20051;-76
2022/03/16 08:15:36;;;;;;;0.00;0.00;;;10.10;99.90;;;;;;5020798;28;20030;-75
2022/03/16 08:18:01;;;;;;;0.00;0.00;;;10.00;99.90;;;;;;5006200;28;20014;-76
2022/03/16 08:20:27;;;;;;;0.00;0.00;;;10.10;99.90;;;;;;5031228;28;20030;-74
2022/03/16 08:22:56;;;;;;;0.00;0.00;;;10.10;99.90;;;;;;5029507;28;20042;-74
2022/03/16 08:25:22;;;;;;;0.00;0.00;;;10.10;99.90;;;;;;5003218;28;20046;-75
2022/03/16 08:27:48;;;;;;;0.00;0.00;;;10.00;99.90;;;;;;5014750;28;20483;-74
2022/03/16 08:30:16;;;;;;;0.00;0.00;;;10.10;99.90;;;;;;5026826;28;20014;-75
2022/03/16 08:32:42;;;;;;;0.00;0.00;;;10.10;99.90;;;;;;5026775;28;20033;-74
2022/03/16 08:35:08;;;;;;;0.00;0.00;;;10.10;99.90;;;;;;5024999;28;20081;-75
2022/03/16 08:37:35;;;;;;;0.00;0.00;;;10.10;99.90;;;;;;5014424;28;20041;-75
2022/03/16 08:40:01;;;;;;;0.00;0.00;;;10.10;99.90;;;;;;5030360;28;20056;-75
2022/03/16 08:42:27;;;;;;;0.00;0.00;;;10.10;99.90;;;;;;5024404;28;20038;-75
2022/03/16 08:44:53;;;;;;;0.00;0.00;;;10.10;99.90;;;;;;4996857;28;20454;-75
2022/03/16 08:47:20;;;;;;;0.00;0.00;;;10.10;99.90;;;;;;5021994;28;20065;-75
2022/03/16 08:49:53;;;;;;;0.00;0.00;;;10.10;99.90;;;;;;5027376;28;20030;-74
2022/03/16 08:52:19;;;;;;;0.00;0.00;;;10.20;99.90;;;;;;5026513;28;20448;-75
2022/03/16 08:54:45;;;;;;;0.00;0.00;;;10.10;99.90;;;;;;5003570;28;20021;-76
2022/03/16 08:57:11;;;;;;;0.00;0.00;;;10.10;99.90;;;;;;5027487;28;20053;-75
2022/03/16 08:59:38;;;;;;;0.00;0.00;;;10.20;99.90;;;;;;5009728;28;20025;-76
2022/03/16 09:02:05;;;;;;;0.00;0.00;;;10.20;99.90;;;;;;5013080;28;20034;-76
2022/03/16 09:04:31;;;;;;;0.00;0.00;;;10.20;99.90;;;;;;5011344;28;20034;-76
2022/03/16 09:07:02;;;;;;;0.00;0.00;;;10.20;99.90;;;;;;5008653;28;20069;-76
2022/03/16 09:09:28;;;;;;;0.00;0.00;;;10.10;99.90;;;;;;5018575;28;20026;-75
2022/03/16 09:11:54;;;;;;;0.00;0.00;;;10.20;99.90;;;;;;5011259;28;20022;-76
2022/03/16 09:14:19;;;;;;;0.00;0.00;;;10.20;99.90;;;;;;5029610;28;20037;-76
2022/03/16 09:16:47;;;;;;;0.00;0.00;;;10.30;99.90;;;;;;5030747;28;20045;-77
2022/03/16 09:19:20;;;;;;;0.00;0.00;;;10.30;99.90;;;;;;5008883;28;20022;-76
2022/03/16 09:21:49;;;;;;;0.00;0.00;;;10.30;99.90;;;;;;5023657;28;20056;-76
2022/03/16 09:24:18;;;;;;;0.00;0.00;;;10.30;99.90;;;;;;5028265;28;20048;-75
2022/03/16 09:26:45;;;;;;;0.00;0.00;;;10.30;99.90;;;;;;5028501;28;20022;-74
2022/03/16 09:29:10;;;;;;;;;;;10.40;99.90;;;;;;5021406;28;20018;-76
2022/03/16 09:31:37;;;;;;;0.00;0.00;;;10.40;99.90;;;;;;5028854;28;19928;-75
2022/03/16 09:34:07;;;;;;;0.00;0.00;;;10.30;99.90;;;;;;5028932;28;20034;-77
2022/03/16 09:36:37;;;;;;;0.00;0.00;;;10.40;99.90;;;;;;5008635;28;20128;-75
2022/03/16 09:39:04;;;;;;;0.00;0.00;;;10.50;99.90;;;;;;5023135;28;20078;-76
2022/03/16 09:41:29;;;;;;;0.00;0.00;;;10.40;99.90;;;;;;5007878;28;20038;-74
2022/03/16 09:43:55;;;;;;;0.00;0.00;;;10.50;99.90;;;;;;5022683;28;20037;-76
2022/03/16 09:46:29;;;;;;;0.00;0.00;;;10.50;99.90;;;;;;5028181;28;20048;-75
2022/03/16 09:48:55;;;;;;;0.00;0.00;;;10.60;99.90;;;;;;5009421;28;20034;-75
2022/03/16 09:51:22;;;;;;;0.00;0.00;;;10.50;99.90;;;;;;5022337;28;20090;-73
2022/03/16 09:53:48;;;;;;;0.00;0.00;;;10.50;99.90;;;;;;4998151;28;20058;-74
2022/03/16 09:56:14;;;;;;;0.00;0.00;;;10.60;99.90;;;;;;5012546;28;20255;-74
2022/03/16 09:58:43;;;;;;;0.00;0.00;;;10.50;99.90;;;;;;4996736;28;20144;-75
2022/03/16 10:01:09;;;;;;;0.00;0.00;;;10.50;99.90;;;;;;5003205;28;20101;-74
2022/03/16 10:03:35;;;;;;;0.00;0.00;;;10.50;99.90;;;;;;5012262;28;20037;-75
2022/03/16 10:06:04;;;;;;;0.00;0.00;;;10.50;99.90;;;;;;5019233;28;20432;-74
2022/03/16 10:08:32;;;;;;;0.00;0.00;;;10.60;99.90;;;;;;5018620;28;20027;-74
2022/03/16 10:14:14;;;;;;;0.00;0.00;;;10.60;99.90;;;;;;5014090;28;20062;-73
2022/03/16 10:19:49;;;;;;;0.00;0.00;;;10.80;99.90;;;;;;5031263;28;20048;-73
2022/03/16 10:22:41;;;;;;;0.00;0.00;;;10.70;99.90;;;;;;5015934;28;20037;-76
2022/03/16 10:25:08;;;;;;;0.00;0.00;;;10.70;99.90;;;;;;5029347;28;20081;-75
2022/03/16 10:27:37;;;;;;;0.00;0.00;;;10.70;99.90;;;;;;5016440;28;20037;-74
2022/03/16 10:30:07;;;;;;;0.00;0.00;;;10.70;99.90;;;;;;5034752;28;20028;-76
2022/03/16 10:32:34;;;;;;;0.00;0.00;;;10.70;99.90;;;;;;5014884;28;20017;-75
2022/03/16 10:35:05;;;;;;;0.00;0.00;;;10.70;99.90;;;;;;5034141;28;20090;-74
2022/03/16 10:37:34;;;;;;;0.00;0.00;;;10.80;99.90;;;;;;5039530;28;20053;-77
2022/03/16 10:39:59;;;;;;;0.00;0.00;;;10.90;99.90;;;;;;5024974;28;20030;-76
2022/03/16 10:48:21;;;;;;;0.00;0.00;;;11.20;99.90;;;;;;5035348;28;20112;-75
2022/03/16 10:50:49;;;;;;;0.00;0.00;;;11.30;99.90;;;;;;5021243;28;20014;-74
2022/03/16 10:53:17;;;;;;;0.00;0.00;;;11.30;99.90;;;;;;5014477;28;20060;-74
2022/03/16 10:55:45;;;;;;;0.00;0.00;;;11.30;99.90;;;;;;5028324;28;20010;-75
2022/03/16 10:58:12;;;;;;;0.00;0.00;;;11.30;99.90;;;;;;5038927;28;20010;-75
2022/03/16 11:00:41;;;;;;;0.00;0.00;;;11.20;99.90;;;;;;5037634;28;20081;-74
2022/03/16 11:03:09;;;;;;;0.00;0.00;;;11.20;99.90;;;;;;5034988;28;20013;-74
2022/03/16 11:05:40;;;;;;;0.00;0.00;;;11.10;99.90;;;;;;5008849;28;20036;-75
2022/03/16 11:08:07;;;;;;;0.00;0.00;;;11.10;99.90;;;;;;5035776;28;20010;-74
2022/03/16 11:10:43;;;;;;;0.00;0.00;;;11.00;99.90;;;;;;5034846;28;20010;-76
2022/03/16 11:13:29;;;;;;;0.00;0.00;;;11.00;99.90;;;;;;5018654;28;20107;-75
2022/03/16 11:15:57;;;;;;;0.00;0.00;;;11.00;99.90;;;;;;5015324;28;20081;-75
2022/03/16 11:18:24;;;;;;;0.00;0.00;;;11.00;99.90;;;;;;5034439;28;20036;-76
2022/03/16 11:20:56;;;;;;;0.00;0.00;;;11.00;99.90;;;;;;5037778;28;20034;-75
2022/03/16 11:26:44;;;;;;;0.00;0.00;;;11.10;99.90;;;;;;5037818;28;20045;-75
2022/03/16 11:29:53;;;;;;;0.00;0.00;;;11.10;99.90;;;;;;5037910;28;20081;-75
2022/03/16 11:32:20;;;;;;;0.00;0.00;;;11.10;99.90;;;;;;4990839;28;20018;-75
2022/03/16 11:34:59;;;;;;;0.00;0.00;;;11.00;99.90;;;;;;5027314;28;20079;-75
2022/03/16 11:37:45;;;;;;;0.00;0.00;;;10.90;99.90;;;;;;5019807;28;20049;-75
2022/03/16 11:40:16;;;;;;;0.00;0.00;;;10.80;99.90;;;;;;5035221;28;20085;-74
2022/03/16 11:43:04;;;;;;;0.00;0.00;;;10.60;99.90;;;;;;5036816;28;20026;-76
2022/03/16 11:45:41;;;;;;;0.00;0.00;;;10.60;99.90;;;;;;5033169;28;20025;-76
2022/03/16 11:48:33;;;;;;;0.00;0.00;;;10.60;99.90;;;;;;5029741;28;20083;-76
2022/03/16 11:51:17;;;;;;;0.00;0.00;;;10.50;99.90;;;;;;5036853;28;20030;-75
2022/03/16 11:53:54;;;;;;;0.00;0.00;;;10.50;99.90;;;;;;5035964;28;20040;-75
2022/03/16 11:56:21;;;;;;;0.00;0.00;;;10.50;99.90;;;;;;5008304;28;20098;-75
2022/03/16 11:58:48;;;;;;;0.00;0.00;;;10.50;99.90;;;;;;5036774;28;20036;-76
2022/03/16 12:01:22;;;;;;;0.00;0.00;;;10.70;99.90;;;;;;5033981;28;20068;-78
2022/03/16 12:03:56;;;;;;;0.00;0.00;;;10.70;99.90;;;;;;5010132;28;20022;-75
2022/03/16 12:06:30;;;;;;;0.00;0.00;;;10.70;99.90;;;;;;4999779;28;20050;-75
2022/03/16 12:09:02;;;;;;;0.00;0.00;;;10.70;99.90;;;;;;5011985;28;20065;-74
2022/03/16 12:14:57;;;;;;;0.00;0.00;;;10.90;99.90;;;;;;5016878;28;20054;-75
2022/03/16 12:17:23;;;;;;;0.00;0.00;;;10.90;99.90;;;;;;5011323;28;20097;-75
2022/03/16 12:20:18;;;;;;;0.00;0.00;;;10.90;99.90;;;;;;5008365;28;20037;-75
2022/03/16 12:22:48;;;;;;;0.00;0.00;;;10.90;99.90;;;;;;5006513;28;20035;-75
2022/03/16 12:25:40;;;;;;;0.00;0.00;;;10.80;99.90;;;;;;5009381;28;20033;-75
2022/03/16 12:31:07;;;;;;;0.00;0.00;;;10.90;99.90;;;;;;5005049;28;20069;-74
2022/03/16 12:33:48;;;;;;;0.00;0.00;;;10.80;99.90;;;;;;5013933;28;20015;-74
2022/03/16 12:36:17;;;;;;;0.00;0.00;;;10.70;99.90;;;;;;5010435;28;20037;-77
2022/03/16 12:38:55;;;;;;;0.00;0.00;;;10.70;99.90;;;;;;5005684;28;20019;-74
2022/03/16 12:44:09;;;;;;;0.00;0.00;;;10.80;99.90;;;;;;4997483;28;20151;-74
2022/03/16 12:46:43;;;;;;;0.00;0.00;;;10.80;99.90;;;;;;4996333;28;20037;-74
2022/03/16 12:49:14;;;;;;;0.00;0.00;;;10.80;99.90;;;;;;5004433;28;20042;-74
2022/03/16 12:51:44;;;;;;;0.00;0.00;;;10.80;99.90;;;;;;5001445;28;20034;-74
2022/03/16 12:54:12;;;;;;;0.00;0.00;;;10.60;99.90;;;;;;5002696;28;20054;-75
2022/03/16 12:56:46;;;;;;;0.00;0.00;;;10.50;99.90;;;;;;5014927;28;20053;-75
2022/03/16 12:59:12;;;;;;;0.00;0.00;;;10.60;99.90;;;;;;5009515;28;20015;-74
2022/03/16 13:01:39;;;;;;;0.00;0.00;;;10.60;99.90;;;;;;5002294;28;20043;-74
2022/03/16 13:04:06;;;;;;;0.00;0.00;;;10.50;99.90;;;;;;5003405;28;20006;-74
2022/03/16 13:06:36;;;;;;;0.00;0.00;;;10.50;99.90;;;;;;5019234;28;20050;-75
2022/03/16 13:09:04;;;;;;;0.00;0.00;;;10.40;99.90;;;;;;5018075;28;20034;-74
2022/03/16 13:11:32;;;;;;;0.00;0.00;;;10.40;99.90;;;;;;5008129;28;20030;-75
2022/03/16 13:14:04;;;;;;;0.00;0.00;;;10.50;99.90;;;;;;5029188;28;20029;-73
2022/03/16 13:16:34;;;;;;;0.00;0.00;;;10.50;99.90;;;;;;5018847;28;20034;-76
2022/03/16 13:19:05;;;;;;;0.00;0.00;;;10.40;99.90;;;;;;5025647;28;20026;-75
2022/03/16 13:21:33;;;;;;;0.00;0.00;;;10.60;99.90;;;;;;5028985;28;20041;-77